sensor_id;sensor_type;location;lat;lon;timestamp;temperature;humidity
68658;DHT22;55639;53.480;-2.228;2022-07-03T00:01:51;25.80;39.90
68658;DHT22;55639;53.480;-2.228;2022-07-03T00:04:17;25.80;39.90
68658;DHT22;55639;53.480;-2.228;2022-07-03T00:06:45;25.80;39.90
68658;DHT22;55639;53.480;-2.228;2022-07-03T00:09:10;25.80;39.90
68658;DHT22;55639;53.480;-2.228;2022-07-03T00:11:37;25.80;39.90
68658;DHT22;55639;53.480;-2.228;2022-07-03T00:14:03;25.80;39.90
68658;DHT22;55639;53.480;-2.228;2022-07-03T00:16:29;25.80;39.90
68658;DHT22;55639;53.480;-2.228;2022-07-03T00:18:55;25.80;39.80
68658;DHT22;55639;53.480;-2.228;2022-07-03T00:21:31;25.80;39.90
68658;DHT22;55639;53.480;-2.228;2022-07-03T00:24:08;25.80;39.90
68658;DHT22;55639;53.480;-2.228;2022-07-03T00:26:37;25.80;39.90
68658;DHT22;55639;53.480;-2.228;2022-07-03T00:29:04;25.80;39.80
68658;DHT22;55639;53.480;-2.228;2022-07-03T00:31:32;25.80;39.80
68658;DHT22;55639;53.480;-2.228;2022-07-03T00:33:59;25.80;39.80
68658;DHT22;55639;53.480;-2.228;2022-07-03T00:36:34;25.80;39.90
68658;DHT22;55639;53.480;-2.228;2022-07-03T00:39:00;25.80;39.90
68658;DHT22;55639;53.480;-2.228;2022-07-03T00:41:31;25.80;39.90
68658;DHT22;55639;53.480;-2.228;2022-07-03T00:43:57;25.80;39.80
68658;DHT22;55639;53.480;-2.228;2022-07-03T00:46:24;25.80;39.80
68658;DHT22;55639;53.480;-2.228;2022-07-03T00:48:52;25.70;39.80
68658;DHT22;55639;53.480;-2.228;2022-07-03T00:51:24;25.70;39.80
68658;DHT22;55639;53.480;-2.228;2022-07-03T00:53:52;25.70;39.80
68658;DHT22;55639;53.480;-2.228;2022-07-03T00:56:23;25.70;39.80
68658;DHT22;55639;53.480;-2.228;2022-07-03T00:58:52;25.70;39.80
68658;DHT22;55639;53.480;-2.228;2022-07-03T01:01:19;25.70;39.80
68658;DHT22;55639;53.480;-2.228;2022-07-03T01:03:45;25.70;39.80
68658;DHT22;55639;53.480;-2.228;2022-07-03T01:06:14;25.70;39.80
68658;DHT22;55639;53.480;-2.228;2022-07-03T01:08:51;25.70;39.80
68658;DHT22;55639;53.480;-2.228;2022-07-03T01:11:38;25.70;39.80
68658;DHT22;55639;53.480;-2.228;2022-07-03T01:16:57;25.70;39.80
68658;DHT22;55639;53.480;-2.228;2022-07-03T01:27:28;25.70;39.80
68658;DHT22;55639;53.480;-2.228;2022-07-03T01:30:08;25.70;39.80
68658;DHT22;55639;53.480;-2.228;2022-07-03T01:32:38;25.70;39.80
68658;DHT22;55639;53.480;-2.228;2022-07-03T01:35:07;25.60;39.70
68658;DHT22;55639;53.480;-2.228;2022-07-03T01:37:34;25.60;39.70
68658;DHT22;55639;53.480;-2.228;2022-07-03T01:40:03;25.60;39.70
68658;DHT22;55639;53.480;-2.228;2022-07-03T01:42:30;25.60;39.70
68658;DHT22;55639;53.480;-2.228;2022-07-03T01:44:58;25.60;39.70
68658;DHT22;55639;53.480;-2.228;2022-07-03T01:47:25;25.60;39.70
68658;DHT22;55639;53.480;-2.228;2022-07-03T01:49:53;25.60;39.70
68658;DHT22;55639;53.480;-2.228;2022-07-03T01:52:20;25.60;39.70
68658;DHT22;55639;53.480;-2.228;2022-07-03T01:54:47;25.60;39.60
68658;DHT22;55639;53.480;-2.228;2022-07-03T01:57:13;25.60;39.70
68658;DHT22;55639;53.480;-2.228;2022-07-03T01:59:39;25.60;39.70
68658;DHT22;55639;53.480;-2.228;2022-07-03T02:02:24;25.60;39.70
68658;DHT22;55639;53.480;-2.228;2022-07-03T02:05:06;25.60;39.60
68658;DHT22;55639;53.480;-2.228;2022-07-03T02:07:39;25.60;39.70
68658;DHT22;55639;53.480;-2.228;2022-07-03T02:10:08;25.50;39.60
68658;DHT22;55639;53.480;-2.228;2022-07-03T02:12:45;25.50;39.60
68658;DHT22;55639;53.480;-2.228;2022-07-03T02:15:21;25.60;39.70
68658;DHT22;55639;53.480;-2.228;2022-07-03T02:17:52;25.50;39.60
68658;DHT22;55639;53.480;-2.228;2022-07-03T02:20:18;25.50;39.60
68658;DHT22;55639;53.480;-2.228;2022-07-03T02:22:52;25.60;39.70
68658;DHT22;55639;53.480;-2.228;2022-07-03T02:25:26;25.50;39.60
68658;DHT22;55639;53.480;-2.228;2022-07-03T02:28:46;25.50;39.60
68658;DHT22;55639;53.480;-2.228;2022-07-03T02:31:02;25.60;39.70
68658;DHT22;55639;53.480;-2.228;2022-07-03T02:33:30;25.50;39.60
68658;DHT22;55639;53.480;-2.228;2022-07-03T02:35:57;25.50;39.60
68658;DHT22;55639;53.480;-2.228;2022-07-03T02:38:24;25.50;39.60
68658;DHT22;55639;53.480;-2.228;2022-07-03T02:41:20;25.50;39.60
68658;DHT22;55639;53.480;-2.228;2022-07-03T03:01:07;25.50;39.70
68658;DHT22;55639;53.480;-2.228;2022-07-03T03:03:34;25.50;39.60
68658;DHT22;55639;53.480;-2.228;2022-07-03T03:06:09;25.50;39.70
68658;DHT22;55639;53.480;-2.228;2022-07-03T03:08:48;25.50;39.60
68658;DHT22;55639;53.480;-2.228;2022-07-03T03:11:24;25.50;39.60
68658;DHT22;55639;53.480;-2.228;2022-07-03T03:13:56;25.50;39.70
68658;DHT22;55639;53.480;-2.228;2022-07-03T03:16:26;25.50;39.60
68658;DHT22;55639;53.480;-2.228;2022-07-03T03:18:52;25.50;39.60
68658;DHT22;55639;53.480;-2.228;2022-07-03T03:21:19;25.50;39.60
68658;DHT22;55639;53.480;-2.228;2022-07-03T03:23:50;25.50;39.70
68658;DHT22;55639;53.480;-2.228;2022-07-03T03:26:19;25.40;39.50
68658;DHT22;55639;53.480;-2.228;2022-07-03T03:28:46;25.50;39.60
68658;DHT22;55639;53.480;-2.228;2022-07-03T03:31:12;25.50;39.60
68658;DHT22;55639;53.480;-2.228;2022-07-03T03:33:43;25.50;39.60
68658;DHT22;55639;53.480;-2.228;2022-07-03T03:36:11;25.50;39.60
68658;DHT22;55639;53.480;-2.228;2022-07-03T03:38:38;25.40;39.60
68658;DHT22;55639;53.480;-2.228;2022-07-03T03:41:04;25.40;39.50
68658;DHT22;55639;53.480;-2.228;2022-07-03T03:43:30;25.40;39.50
68658;DHT22;55639;53.480;-2.228;2022-07-03T03:45:57;25.40;39.50
68658;DHT22;55639;53.480;-2.228;2022-07-03T03:48:23;25.40;39.50
68658;DHT22;55639;53.480;-2.228;2022-07-03T03:50:49;25.40;39.60
68658;DHT22;55639;53.480;-2.228;2022-07-03T03:53:15;25.40;39.50
68658;DHT22;55639;53.480;-2.228;2022-07-03T03:56:03;25.40;39.50
68658;DHT22;55639;53.480;-2.228;2022-07-03T03:58:33;25.40;39.50
68658;DHT22;55639;53.480;-2.228;2022-07-03T04:01:00;25.40;39.60
68658;DHT22;55639;53.480;-2.228;2022-07-03T04:03:27;25.40;40.10
68658;DHT22;55639;53.480;-2.228;2022-07-03T04:05:54;25.40;39.50
68658;DHT22;55639;53.480;-2.228;2022-07-03T04:08:21;25.40;39.60
68658;DHT22;55639;53.480;-2.228;2022-07-03T04:10:47;25.40;39.50
68658;DHT22;55639;53.480;-2.228;2022-07-03T04:13:14;25.40;39.50
68658;DHT22;55639;53.480;-2.228;2022-07-03T04:15:40;25.40;39.50
68658;DHT22;55639;53.480;-2.228;2022-07-03T04:18:06;25.40;39.50
68658;DHT22;55639;53.480;-2.228;2022-07-03T04:20:32;25.40;39.50
68658;DHT22;55639;53.480;-2.228;2022-07-03T04:22:58;25.40;39.50
68658;DHT22;55639;53.480;-2.228;2022-07-03T04:25:24;25.40;39.50
68658;DHT22;55639;53.480;-2.228;2022-07-03T04:27:50;25.40;39.50
68658;DHT22;55639;53.480;-2.228;2022-07-03T04:30:16;25.40;39.50
68658;DHT22;55639;53.480;-2.228;2022-07-03T04:32:42;25.40;39.50
68658;DHT22;55639;53.480;-2.228;2022-07-03T04:35:08;25.40;39.50
68658;DHT22;55639;53.480;-2.228;2022-07-03T04:37:34;25.30;39.50
68658;DHT22;55639;53.480;-2.228;2022-07-03T04:40:00;25.40;39.50
68658;DHT22;55639;53.480;-2.228;2022-07-03T04:42:25;25.30;39.50
68658;DHT22;55639;53.480;-2.228;2022-07-03T04:44:51;25.30;39.50
68658;DHT22;55639;53.480;-2.228;2022-07-03T04:47:16;25.30;39.50
68658;DHT22;55639;53.480;-2.228;2022-07-03T04:49:42;25.30;39.50
68658;DHT22;55639;53.480;-2.228;2022-07-03T04:52:08;25.30;39.50
68658;DHT22;55639;53.480;-2.228;2022-07-03T04:54:34;25.30;39.50
68658;DHT22;55639;53.480;-2.228;2022-07-03T04:57:00;25.30;39.50
68658;DHT22;55639;53.480;-2.228;2022-07-03T04:59:26;25.30;39.50
68658;DHT22;55639;53.480;-2.228;2022-07-03T05:01:51;25.30;39.50
68658;DHT22;55639;53.480;-2.228;2022-07-03T05:04:17;25.30;39.50
68658;DHT22;55639;53.480;-2.228;2022-07-03T05:06:43;25.30;39.50
68658;DHT22;55639;53.480;-2.228;2022-07-03T05:09:09;25.30;39.50
68658;DHT22;55639;53.480;-2.228;2022-07-03T05:11:34;25.30;39.50
68658;DHT22;55639;53.480;-2.228;2022-07-03T05:14:02;25.30;39.50
68658;DHT22;55639;53.480;-2.228;2022-07-03T05:16:28;25.30;39.50
68658;DHT22;55639;53.480;-2.228;2022-07-03T05:18:53;25.30;39.50
68658;DHT22;55639;53.480;-2.228;2022-07-03T05:21:19;25.20;39.50
68658;DHT22;55639;53.480;-2.228;2022-07-03T05:23:45;25.30;39.50
68658;DHT22;55639;53.480;-2.228;2022-07-03T05:26:10;25.30;39.50
68658;DHT22;55639;53.480;-2.228;2022-07-03T05:28:36;25.30;39.50
68658;DHT22;55639;53.480;-2.228;2022-07-03T05:31:02;25.30;39.50
68658;DHT22;55639;53.480;-2.228;2022-07-03T05:33:28;25.30;39.50
68658;DHT22;55639;53.480;-2.228;2022-07-03T05:35:57;25.30;39.50
68658;DHT22;55639;53.480;-2.228;2022-07-03T05:38:23;25.30;39.50
68658;DHT22;55639;53.480;-2.228;2022-07-03T05:41:07;25.30;39.50
68658;DHT22;55639;53.480;-2.228;2022-07-03T05:43:33;25.20;39.50
68658;DHT22;55639;53.480;-2.228;2022-07-03T05:45:59;25.20;39.50
68658;DHT22;55639;53.480;-2.228;2022-07-03T05:48:25;25.20;39.50
68658;DHT22;55639;53.480;-2.228;2022-07-03T05:50:51;25.20;39.50
68658;DHT22;55639;53.480;-2.228;2022-07-03T05:53:17;25.20;39.50
68658;DHT22;55639;53.480;-2.228;2022-07-03T05:55:42;25.20;39.50
68658;DHT22;55639;53.480;-2.228;2022-07-03T05:58:08;25.20;39.50
68658;DHT22;55639;53.480;-2.228;2022-07-03T06:00:34;25.20;39.50
68658;DHT22;55639;53.480;-2.228;2022-07-03T06:02:59;25.20;39.50
68658;DHT22;55639;53.480;-2.228;2022-07-03T06:05:25;25.20;39.50
68658;DHT22;55639;53.480;-2.228;2022-07-03T06:07:51;25.20;39.50
68658;DHT22;55639;53.480;-2.228;2022-07-03T06:10:17;25.20;39.50
68658;DHT22;55639;53.480;-2.228;2022-07-03T06:12:43;25.20;39.50
68658;DHT22;55639;53.480;-2.228;2022-07-03T06:15:09;25.20;39.50
68658;DHT22;55639;53.480;-2.228;2022-07-03T06:17:35;25.20;39.50
68658;DHT22;55639;53.480;-2.228;2022-07-03T06:20:02;25.20;39.50
68658;DHT22;55639;53.480;-2.228;2022-07-03T06:22:28;25.20;39.50
68658;DHT22;55639;53.480;-2.228;2022-07-03T06:24:53;25.20;39.50
68658;DHT22;55639;53.480;-2.228;2022-07-03T06:27:19;25.20;39.50
68658;DHT22;55639;53.480;-2.228;2022-07-03T06:29:45;25.20;39.50
68658;DHT22;55639;53.480;-2.228;2022-07-03T06:32:10;25.20;39.50
68658;DHT22;55639;53.480;-2.228;2022-07-03T06:34:36;25.20;39.50
68658;DHT22;55639;53.480;-2.228;2022-07-03T06:37:02;25.20;39.50
68658;DHT22;55639;53.480;-2.228;2022-07-03T06:39:28;25.20;39.50
68658;DHT22;55639;53.480;-2.228;2022-07-03T06:41:53;25.20;39.50
68658;DHT22;55639;53.480;-2.228;2022-07-03T06:44:19;25.20;39.50
68658;DHT22;55639;53.480;-2.228;2022-07-03T06:46:44;25.20;39.50
68658;DHT22;55639;53.480;-2.228;2022-07-03T06:49:10;25.20;39.50
68658;DHT22;55639;53.480;-2.228;2022-07-03T06:51:36;25.20;39.50
68658;DHT22;55639;53.480;-2.228;2022-07-03T06:54:02;25.20;39.50
68658;DHT22;55639;53.480;-2.228;2022-07-03T06:56:27;25.20;39.50
68658;DHT22;55639;53.480;-2.228;2022-07-03T06:58:53;25.20;39.50
68658;DHT22;55639;53.480;-2.228;2022-07-03T07:01:19;25.20;39.50
68658;DHT22;55639;53.480;-2.228;2022-07-03T07:03:44;25.20;39.50
68658;DHT22;55639;53.480;-2.228;2022-07-03T07:06:10;25.20;39.50
68658;DHT22;55639;53.480;-2.228;2022-07-03T07:08:35;25.20;39.50
68658;DHT22;55639;53.480;-2.228;2022-07-03T07:11:01;25.20;39.50
68658;DHT22;55639;53.480;-2.228;2022-07-03T07:13:27;25.20;39.50
68658;DHT22;55639;53.480;-2.228;2022-07-03T07:15:53;25.20;39.50
68658;DHT22;55639;53.480;-2.228;2022-07-03T07:18:18;25.20;39.50
68658;DHT22;55639;53.480;-2.228;2022-07-03T07:20:44;25.20;39.50
68658;DHT22;55639;53.480;-2.228;2022-07-03T07:23:09;25.20;39.50
68658;DHT22;55639;53.480;-2.228;2022-07-03T07:25:36;25.20;39.50
68658;DHT22;55639;53.480;-2.228;2022-07-03T07:28:02;25.20;39.50
68658;DHT22;55639;53.480;-2.228;2022-07-03T07:30:27;25.20;39.50
68658;DHT22;55639;53.480;-2.228;2022-07-03T07:32:53;25.20;39.50
68658;DHT22;55639;53.480;-2.228;2022-07-03T07:35:18;25.20;39.50
68658;DHT22;55639;53.480;-2.228;2022-07-03T07:37:44;25.20;39.50
68658;DHT22;55639;53.480;-2.228;2022-07-03T07:40:10;25.20;39.50
68658;DHT22;55639;53.480;-2.228;2022-07-03T07:42:36;25.20;39.50
68658;DHT22;55639;53.480;-2.228;2022-07-03T07:45:02;25.20;39.50
68658;DHT22;55639;53.480;-2.228;2022-07-03T07:47:27;25.20;39.50
68658;DHT22;55639;53.480;-2.228;2022-07-03T07:49:53;25.20;39.50
68658;DHT22;55639;53.480;-2.228;2022-07-03T07:52:19;25.20;39.50
68658;DHT22;55639;53.480;-2.228;2022-07-03T07:54:44;25.20;39.50
68658;DHT22;55639;53.480;-2.228;2022-07-03T07:57:10;25.20;39.50
68658;DHT22;55639;53.480;-2.228;2022-07-03T07:59:35;25.20;39.50
68658;DHT22;55639;53.480;-2.228;2022-07-03T08:02:01;25.20;39.50
68658;DHT22;55639;53.480;-2.228;2022-07-03T08:04:45;25.20;39.50
68658;DHT22;55639;53.480;-2.228;2022-07-03T08:07:46;25.20;39.50
68658;DHT22;55639;53.480;-2.228;2022-07-03T08:10:12;25.10;39.50
68658;DHT22;55639;53.480;-2.228;2022-07-03T08:12:37;25.20;39.60
68658;DHT22;55639;53.480;-2.228;2022-07-03T08:15:03;25.20;39.60
68658;DHT22;55639;53.480;-2.228;2022-07-03T08:17:29;25.20;39.60
68658;DHT22;55639;53.480;-2.228;2022-07-03T08:19:54;25.20;39.50
68658;DHT22;55639;53.480;-2.228;2022-07-03T08:22:20;25.20;39.50
68658;DHT22;55639;53.480;-2.228;2022-07-03T08:24:45;25.20;39.60
68658;DHT22;55639;53.480;-2.228;2022-07-03T08:27:11;25.20;39.60
68658;DHT22;55639;53.480;-2.228;2022-07-03T08:29:37;25.20;39.60
68658;DHT22;55639;53.480;-2.228;2022-07-03T08:32:04;25.20;39.60
68658;DHT22;55639;53.480;-2.228;2022-07-03T08:34:29;25.20;39.60
68658;DHT22;55639;53.480;-2.228;2022-07-03T08:36:55;25.20;39.60
68658;DHT22;55639;53.480;-2.228;2022-07-03T08:39:21;25.10;39.50
68658;DHT22;55639;53.480;-2.228;2022-07-03T08:41:48;25.10;39.50
68658;DHT22;55639;53.480;-2.228;2022-07-03T08:44:15;25.20;39.60
68658;DHT22;55639;53.480;-2.228;2022-07-03T08:46:42;25.10;39.50
68658;DHT22;55639;53.480;-2.228;2022-07-03T08:49:09;25.20;39.50
68658;DHT22;55639;53.480;-2.228;2022-07-03T08:51:35;25.20;39.50
68658;DHT22;55639;53.480;-2.228;2022-07-03T08:54:01;25.10;39.50
68658;DHT22;55639;53.480;-2.228;2022-07-03T08:56:28;25.20;39.50
68658;DHT22;55639;53.480;-2.228;2022-07-03T08:58:57;25.20;39.50
68658;DHT22;55639;53.480;-2.228;2022-07-03T09:01:23;25.10;39.50
68658;DHT22;55639;53.480;-2.228;2022-07-03T09:03:50;25.20;39.60
68658;DHT22;55639;53.480;-2.228;2022-07-03T09:06:17;25.20;39.60
68658;DHT22;55639;53.480;-2.228;2022-07-03T09:08:43;25.20;39.60
68658;DHT22;55639;53.480;-2.228;2022-07-03T09:11:10;25.20;39.60
68658;DHT22;55639;53.480;-2.228;2022-07-03T09:13:36;25.20;39.60
68658;DHT22;55639;53.480;-2.228;2022-07-03T09:16:02;25.20;39.60
68658;DHT22;55639;53.480;-2.228;2022-07-03T09:18:42;25.20;39.60
68658;DHT22;55639;53.480;-2.228;2022-07-03T09:21:08;25.20;39.60
68658;DHT22;55639;53.480;-2.228;2022-07-03T09:23:39;25.20;39.60
68658;DHT22;55639;53.480;-2.228;2022-07-03T09:26:05;25.20;39.60
68658;DHT22;55639;53.480;-2.228;2022-07-03T09:28:48;25.20;39.60
68658;DHT22;55639;53.480;-2.228;2022-07-03T09:31:18;25.20;39.60
68658;DHT22;55639;53.480;-2.228;2022-07-03T09:34:07;25.20;39.60
68658;DHT22;55639;53.480;-2.228;2022-07-03T09:36:46;25.20;39.60
68658;DHT22;55639;53.480;-2.228;2022-07-03T09:39:31;25.20;39.60
68658;DHT22;55639;53.480;-2.228;2022-07-03T09:42:06;25.20;39.60
68658;DHT22;55639;53.480;-2.228;2022-07-03T09:44:37;25.20;39.60
68658;DHT22;55639;53.480;-2.228;2022-07-03T09:47:26;25.20;39.60
68658;DHT22;55639;53.480;-2.228;2022-07-03T09:52:39;25.20;39.60
68658;DHT22;55639;53.480;-2.228;2022-07-03T10:03:03;25.20;39.60
68658;DHT22;55639;53.480;-2.228;2022-07-03T10:05:34;25.20;39.60
68658;DHT22;55639;53.480;-2.228;2022-07-03T10:08:08;25.20;39.60
68658;DHT22;55639;53.480;-2.228;2022-07-03T10:10:38;25.20;39.60
68658;DHT22;55639;53.480;-2.228;2022-07-03T10:13:04;25.20;39.60
68658;DHT22;55639;53.480;-2.228;2022-07-03T10:15:32;25.20;39.60
68658;DHT22;55639;53.480;-2.228;2022-07-03T10:17:59;25.20;39.60
68658;DHT22;55639;53.480;-2.228;2022-07-03T10:20:29;25.20;39.60
68658;DHT22;55639;53.480;-2.228;2022-07-03T10:22:55;25.20;39.50
68658;DHT22;55639;53.480;-2.228;2022-07-03T10:25:21;25.20;39.50
68658;DHT22;55639;53.480;-2.228;2022-07-03T10:27:48;25.20;39.60
68658;DHT22;55639;53.480;-2.228;2022-07-03T10:30:15;25.20;39.50
68658;DHT22;55639;53.480;-2.228;2022-07-03T10:32:45;25.20;39.50
68658;DHT22;55639;53.480;-2.228;2022-07-03T10:35:17;25.20;39.50
68658;DHT22;55639;53.480;-2.228;2022-07-03T10:43:27;25.20;39.60
68658;DHT22;55639;53.480;-2.228;2022-07-03T10:46:17;25.20;39.50
68658;DHT22;55639;53.480;-2.228;2022-07-03T10:51:17;25.20;39.60
68658;DHT22;55639;53.480;-2.228;2022-07-03T10:53:43;25.20;39.50
68658;DHT22;55639;53.480;-2.228;2022-07-03T10:56:09;25.20;39.50
68658;DHT22;55639;53.480;-2.228;2022-07-03T10:58:58;25.20;39.50
68658;DHT22;55639;53.480;-2.228;2022-07-03T11:01:31;25.20;39.50
68658;DHT22;55639;53.480;-2.228;2022-07-03T11:04:01;25.20;39.50
68658;DHT22;55639;53.480;-2.228;2022-07-03T11:09:10;25.20;39.50
68658;DHT22;55639;53.480;-2.228;2022-07-03T11:11:41;25.20;39.50
68658;DHT22;55639;53.480;-2.228;2022-07-03T11:14:26;25.20;39.60
68658;DHT22;55639;53.480;-2.228;2022-07-03T11:17:21;25.20;39.50
68658;DHT22;55639;53.480;-2.228;2022-07-03T11:19:48;25.20;39.50
68658;DHT22;55639;53.480;-2.228;2022-07-03T11:25:44;25.20;40.10
68658;DHT22;55639;53.480;-2.228;2022-07-03T11:41:16;25.20;39.50
68658;DHT22;55639;53.480;-2.228;2022-07-03T11:43:58;25.20;39.50
68658;DHT22;55639;53.480;-2.228;2022-07-03T11:46:28;25.20;39.50
68658;DHT22;55639;53.480;-2.228;2022-07-03T11:49:07;25.20;39.50
68658;DHT22;55639;53.480;-2.228;2022-07-03T11:51:34;25.20;39.50
68658;DHT22;55639;53.480;-2.228;2022-07-03T11:54:00;25.20;39.50
68658;DHT22;55639;53.480;-2.228;2022-07-03T11:56:26;25.20;39.50
68658;DHT22;55639;53.480;-2.228;2022-07-03T11:58:55;25.20;39.50
68658;DHT22;55639;53.480;-2.228;2022-07-03T12:06:58;25.20;39.40
68658;DHT22;55639;53.480;-2.228;2022-07-03T12:09:35;25.20;39.50
68658;DHT22;55639;53.480;-2.228;2022-07-03T12:14:43;25.20;39.50
68658;DHT22;55639;53.480;-2.228;2022-07-03T12:17:14;25.20;39.50
68658;DHT22;55639;53.480;-2.228;2022-07-03T12:19:54;25.20;39.40
68658;DHT22;55639;53.480;-2.228;2022-07-03T12:22:34;25.20;39.40
68658;DHT22;55639;53.480;-2.228;2022-07-03T12:25:07;25.20;39.40
68658;DHT22;55639;53.480;-2.228;2022-07-03T12:27:35;25.20;39.40
68658;DHT22;55639;53.480;-2.228;2022-07-03T12:30:02;25.20;39.40
68658;DHT22;55639;53.480;-2.228;2022-07-03T12:32:29;25.20;39.40
68658;DHT22;55639;53.480;-2.228;2022-07-03T12:34:54;25.20;39.40
68658;DHT22;55639;53.480;-2.228;2022-07-03T12:37:37;25.20;39.30
68658;DHT22;55639;53.480;-2.228;2022-07-03T12:40:09;25.20;39.30
68658;DHT22;55639;53.480;-2.228;2022-07-03T12:42:51;25.20;39.30
68658;DHT22;55639;53.480;-2.228;2022-07-03T12:45:22;25.30;39.40
68658;DHT22;55639;53.480;-2.228;2022-07-03T12:50:24;25.20;39.30
68658;DHT22;55639;53.480;-2.228;2022-07-03T12:52:55;25.30;39.50
68658;DHT22;55639;53.480;-2.228;2022-07-03T12:55:28;25.30;39.40
68658;DHT22;55639;53.480;-2.228;2022-07-03T12:58:16;25.30;39.40
68658;DHT22;55639;53.480;-2.228;2022-07-03T13:01:05;25.30;39.40
68658;DHT22;55639;53.480;-2.228;2022-07-03T13:03:35;25.30;39.40
68658;DHT22;55639;53.480;-2.228;2022-07-03T13:06:00;25.30;39.40
68658;DHT22;55639;53.480;-2.228;2022-07-03T13:08:26;25.30;39.40
68658;DHT22;55639;53.480;-2.228;2022-07-03T13:10:59;25.30;39.30
68658;DHT22;55639;53.480;-2.228;2022-07-03T13:13:26;25.30;39.30
68658;DHT22;55639;53.480;-2.228;2022-07-03T13:15:52;25.30;39.30
68658;DHT22;55639;53.480;-2.228;2022-07-03T13:18:18;25.30;39.40
68658;DHT22;55639;53.480;-2.228;2022-07-03T13:20:44;25.20;39.30
68658;DHT22;55639;53.480;-2.228;2022-07-03T13:23:09;25.30;39.40
68658;DHT22;55639;53.480;-2.228;2022-07-03T13:25:37;25.30;39.40
68658;DHT22;55639;53.480;-2.228;2022-07-03T13:28:13;25.30;39.30
68658;DHT22;55639;53.480;-2.228;2022-07-03T13:30:40;25.30;39.30
68658;DHT22;55639;53.480;-2.228;2022-07-03T13:33:06;25.30;39.30
68658;DHT22;55639;53.480;-2.228;2022-07-03T13:35:33;25.30;39.30
68658;DHT22;55639;53.480;-2.228;2022-07-03T13:37:59;25.30;39.40
68658;DHT22;55639;53.480;-2.228;2022-07-03T13:40:25;25.30;39.40
68658;DHT22;55639;53.480;-2.228;2022-07-03T13:42:50;25.30;39.40
68658;DHT22;55639;53.480;-2.228;2022-07-03T13:45:16;25.30;39.40
68658;DHT22;55639;53.480;-2.228;2022-07-03T13:47:42;25.30;39.30
68658;DHT22;55639;53.480;-2.228;2022-07-03T13:50:09;25.30;39.40
68658;DHT22;55639;53.480;-2.228;2022-07-03T13:52:35;25.30;39.40
68658;DHT22;55639;53.480;-2.228;2022-07-03T13:55:00;25.30;39.30
68658;DHT22;55639;53.480;-2.228;2022-07-03T13:57:26;25.30;39.30
68658;DHT22;55639;53.480;-2.228;2022-07-03T13:59:52;25.30;39.30
68658;DHT22;55639;53.480;-2.228;2022-07-03T14:02:17;25.30;39.30
68658;DHT22;55639;53.480;-2.228;2022-07-03T14:04:43;25.30;39.30
68658;DHT22;55639;53.480;-2.228;2022-07-03T14:07:08;25.30;39.40
68658;DHT22;55639;53.480;-2.228;2022-07-03T14:09:35;25.30;39.30
68658;DHT22;55639;53.480;-2.228;2022-07-03T14:12:00;25.30;39.30
68658;DHT22;55639;53.480;-2.228;2022-07-03T14:14:26;25.30;39.30
68658;DHT22;55639;53.480;-2.228;2022-07-03T14:16:52;25.30;39.30
68658;DHT22;55639;53.480;-2.228;2022-07-03T14:19:18;25.40;39.30
68658;DHT22;55639;53.480;-2.228;2022-07-03T14:21:44;25.40;39.40
68658;DHT22;55639;53.480;-2.228;2022-07-03T14:24:10;25.40;39.30
68658;DHT22;55639;53.480;-2.228;2022-07-03T14:26:36;25.40;39.30
68658;DHT22;55639;53.480;-2.228;2022-07-03T14:29:20;25.30;39.30
68658;DHT22;55639;53.480;-2.228;2022-07-03T14:32:05;25.30;39.30
68658;DHT22;55639;53.480;-2.228;2022-07-03T14:34:49;25.40;39.40
68658;DHT22;55639;53.480;-2.228;2022-07-03T14:37:14;25.40;39.30
68658;DHT22;55639;53.480;-2.228;2022-07-03T14:39:47;25.40;39.30
68658;DHT22;55639;53.480;-2.228;2022-07-03T14:42:12;25.40;39.30
68658;DHT22;55639;53.480;-2.228;2022-07-03T14:44:38;25.40;39.20
68658;DHT22;55639;53.480;-2.228;2022-07-03T14:47:04;25.40;39.30
68658;DHT22;55639;53.480;-2.228;2022-07-03T14:49:31;25.40;39.20
68658;DHT22;55639;53.480;-2.228;2022-07-03T14:52:01;25.40;39.20
68658;DHT22;55639;53.480;-2.228;2022-07-03T14:54:26;25.50;39.30
68658;DHT22;55639;53.480;-2.228;2022-07-03T14:56:53;25.50;39.20
68658;DHT22;55639;53.480;-2.228;2022-07-03T15:00:08;25.50;39.20
68658;DHT22;55639;53.480;-2.228;2022-07-03T15:02:22;25.40;39.10
68658;DHT22;55639;53.480;-2.228;2022-07-03T15:07:21;25.50;39.20
68658;DHT22;55639;53.480;-2.228;2022-07-03T15:10:03;25.40;39.10
68658;DHT22;55639;53.480;-2.228;2022-07-03T15:12:34;25.40;39.10
68658;DHT22;55639;53.480;-2.228;2022-07-03T15:15:02;25.50;39.20
68658;DHT22;55639;53.480;-2.228;2022-07-03T15:17:28;25.40;39.10
68658;DHT22;55639;53.480;-2.228;2022-07-03T15:19:55;25.50;39.20
68658;DHT22;55639;53.480;-2.228;2022-07-03T15:22:22;25.50;39.10
68658;DHT22;55639;53.480;-2.228;2022-07-03T15:24:51;25.50;39.20
68658;DHT22;55639;53.480;-2.228;2022-07-03T15:27:22;25.40;39.10
68658;DHT22;55639;53.480;-2.228;2022-07-03T15:29:49;25.50;39.10
68658;DHT22;55639;53.480;-2.228;2022-07-03T15:32:16;25.50;39.10
68658;DHT22;55639;53.480;-2.228;2022-07-03T15:34:42;25.50;39.10
68658;DHT22;55639;53.480;-2.228;2022-07-03T15:40:06;25.50;39.10
68658;DHT22;55639;53.480;-2.228;2022-07-03T15:53:19;25.50;39.10
68658;DHT22;55639;53.480;-2.228;2022-07-03T15:55:48;25.50;39.00
68658;DHT22;55639;53.480;-2.228;2022-07-03T15:58:14;25.50;39.00
68658;DHT22;55639;53.480;-2.228;2022-07-03T16:00:40;25.50;39.00
68658;DHT22;55639;53.480;-2.228;2022-07-03T16:05:47;25.50;39.00
68658;DHT22;55639;53.480;-2.228;2022-07-03T16:08:14;25.50;39.00
68658;DHT22;55639;53.480;-2.228;2022-07-03T16:10:40;25.50;39.00
68658;DHT22;55639;53.480;-2.228;2022-07-03T16:13:07;25.50;39.00
68658;DHT22;55639;53.480;-2.228;2022-07-03T16:15:37;25.60;39.00
68658;DHT22;55639;53.480;-2.228;2022-07-03T16:18:04;25.50;38.90
68658;DHT22;55639;53.480;-2.228;2022-07-03T16:20:31;25.60;39.00
68658;DHT22;55639;53.480;-2.228;2022-07-03T16:23:03;25.50;38.90
68658;DHT22;55639;53.480;-2.228;2022-07-03T16:25:33;25.50;38.90
68658;DHT22;55639;53.480;-2.228;2022-07-03T16:28:05;25.60;38.90
68658;DHT22;55639;53.480;-2.228;2022-07-03T16:30:31;25.60;38.90
68658;DHT22;55639;53.480;-2.228;2022-07-03T16:33:02;25.60;38.90
68658;DHT22;55639;53.480;-2.228;2022-07-03T16:35:43;25.60;38.80
68658;DHT22;55639;53.480;-2.228;2022-07-03T16:38:11;25.60;38.80
68658;DHT22;55639;53.480;-2.228;2022-07-03T16:40:40;25.60;38.80
68658;DHT22;55639;53.480;-2.228;2022-07-03T16:43:08;25.60;38.80
68658;DHT22;55639;53.480;-2.228;2022-07-03T16:45:35;25.60;38.70
68658;DHT22;55639;53.480;-2.228;2022-07-03T16:48:14;25.60;38.70
68658;DHT22;55639;53.480;-2.228;2022-07-03T16:50:56;25.70;38.70
68658;DHT22;55639;53.480;-2.228;2022-07-03T16:53:23;25.70;38.60
68658;DHT22;55639;53.480;-2.228;2022-07-03T16:55:50;25.70;38.50
68658;DHT22;55639;53.480;-2.228;2022-07-03T16:58:16;25.70;38.50
68658;DHT22;55639;53.480;-2.228;2022-07-03T17:00:43;25.80;38.60
68658;DHT22;55639;53.480;-2.228;2022-07-03T17:03:10;25.80;38.50